Time;durP1;ratioP1;P1;durP2;ratioP2;P2;SDS_P1;SDS_P2;PMS_P1;PMS_P2;Temp;Humidity;BMP_temperature;BMP_pressure;BME280_temperature;BME280_humidity;BME280_pressure;Samples;Min_cycle;Max_cycle;Signal;HPM_P1;HPM_P2
2023/09/02 00:02:19;;;;;;;16.63;14.77;;;14.30;99.90;;;;;;4967538;28;20332;-71
2023/09/02 00:04:45;;;;;;;19.13;15.40;;;14.30;99.90;;;;;;4957007;28;20178;-70
2023/09/02 00:07:11;;;;;;;17.37;15.57;;;14.30;99.90;;;;;;4961752;28;20437;-71
2023/09/02 00:09:37;;;;;;;18.80;16.23;;;14.30;99.90;;;;;;4959133;28;20202;-71
2023/09/02 00:12:02;;;;;;;18.90;15.77;;;14.30;99.90;;;;;;4951107;28;20874;-68
2023/09/02 00:14:28;;;;;;;19.77;15.37;;;14.30;99.90;;;;;;4956557;28;20454;-70
2023/09/02 00:16:54;;;;;;;18.20;16.10;;;14.20;99.90;;;;;;4956555;28;20198;-71
2023/09/02 00:19:21;;;;;;;21.17;16.53;;;14.20;99.90;;;;;;4956433;28;20203;-71
2023/09/02 00:21:47;;;;;;;18.03;15.20;;;14.20;99.90;;;;;;4956423;28;20259;-71
2023/09/02 00:24:12;;;;;;;19.83;16.93;;;14.20;99.90;;;;;;4961192;28;20589;-70
2023/09/02 00:26:38;;;;;;;19.00;15.43;;;14.10;99.90;;;;;;4957711;28;20246;-69
2023/09/02 00:29:03;;;;;;;16.10;14.50;;;14.10;99.90;;;;;;4958428;28;20209;-68
2023/09/02 00:31:29;;;;;;;18.73;15.57;;;14.10;99.90;;;;;;4957441;28;20174;-70
2023/09/02 00:33:55;;;;;;;17.33;15.60;;;14.10;99.90;;;;;;4956042;28;20209;-70
2023/09/02 00:36:21;;;;;;;16.97;14.10;;;14.10;99.90;;;;;;4955907;28;20237;-71
2023/09/02 00:38:47;;;;;;;18.40;14.93;;;14.00;99.90;;;;;;4958151;28;20225;-69
2023/09/02 00:41:31;;;;;;;17.57;15.90;;;14.00;99.90;;;;;;4958049;28;20538;-70
2023/09/02 00:43:57;;;;;;;22.73;15.37;;;14.00;99.90;;;;;;4959965;28;20425;-71
2023/09/02 00:46:24;;;;;;;17.93;14.80;;;13.90;99.90;;;;;;4959578;28;20439;-68
2023/09/02 00:48:49;;;;;;;21.87;15.93;;;13.90;99.90;;;;;;4959602;28;20450;-70
2023/09/02 00:51:15;;;;;;;19.80;15.40;;;13.90;99.90;;;;;;4960844;28;20488;-72
2023/09/02 00:53:42;;;;;;;17.53;15.50;;;13.90;99.90;;;;;;4958569;28;20175;-68
2023/09/02 00:56:12;;;;;;;18.67;16.50;;;13.90;99.90;;;;;;4960833;28;20241;-70
2023/09/02 00:58:38;;;;;;;16.07;14.27;;;13.80;99.90;;;;;;4962019;28;20966;-71
2023/09/02 01:01:04;;;;;;;18.30;16.50;;;13.80;99.90;;;;;;4958162;28;20737;-71
2023/09/02 01:03:35;;;;;;;18.23;15.13;;;13.80;99.90;;;;;;4955902;28;20175;-69
2023/09/02 01:06:02;;;;;;;22.10;16.00;;;13.80;99.90;;;;;;4972674;28;20182;-68
2023/09/02 01:08:32;;;;;;;17.63;15.43;;;13.80;99.90;;;;;;4969936;28;20472;-68
2023/09/02 01:10:59;;;;;;;18.13;15.40;;;13.70;99.90;;;;;;4952705;28;20453;-68
2023/09/02 01:13:25;;;;;;;18.50;15.17;;;13.70;99.90;;;;;;4958373;28;20987;-69
2023/09/02 01:15:54;;;;;;;18.03;16.23;;;13.70;99.90;;;;;;4957072;28;20513;-70
2023/09/02 01:18:27;;;;;;;21.50;15.57;;;13.70;99.90;;;;;;4976311;28;20432;-69
2023/09/02 01:20:52;;;;;;;18.13;16.20;;;13.60;99.90;;;;;;4973151;28;20449;-70
2023/09/02 01:23:46;;;;;;;20.70;16.27;;;13.60;99.90;;;;;;4964917;28;20457;-70
2023/09/02 01:26:53;;;;;;;18.87;15.90;;;13.60;99.90;;;;;;4971316;28;20194;-71
2023/09/02 01:29:21;;;;;;;24.00;16.10;;;13.60;99.90;;;;;;4979577;28;20468;-71
2023/09/02 01:31:52;;;;;;;19.20;15.60;;;13.60;99.90;;;;;;4967657;28;20475;-70
2023/09/02 01:34:19;;;;;;;19.90;16.43;;;13.60;99.90;;;;;;4957289;28;20437;-71
2023/09/02 01:36:46;;;;;;;16.13;14.50;;;13.60;99.90;;;;;;4958350;28;20770;-68
2023/09/02 01:39:16;;;;;;;17.70;15.73;;;13.60;99.90;;;;;;4960790;28;20457;-69
2023/09/02 01:41:43;;;;;;;17.07;15.27;;;13.60;99.90;;;;;;4963927;28;20889;-69
2023/09/02 01:44:11;;;;;;;18.30;16.40;;;13.60;99.90;;;;;;4961556;28;20428;-68
2023/09/02 01:46:37;;;;;;;18.33;15.70;;;13.60;99.90;;;;;;4961369;28;20418;-69
2023/09/02 01:49:04;;;;;;;19.40;17.30;;;13.50;99.90;;;;;;4968561;28;20599;-69
2023/09/02 01:51:30;;;;;;;19.70;17.63;;;13.50;99.90;;;;;;4975398;28;20857;-69
2023/09/02 01:53:56;;;;;;;19.07;17.17;;;13.60;99.90;;;;;;4975544;28;20402;-68
2023/09/02 01:56:22;;;;;;;18.73;16.70;;;13.70;99.90;;;;;;4975034;28;20421;-69
2023/09/02 01:58:49;;;;;;;19.33;16.33;;;13.80;99.90;;;;;;4973079;28;20487;-69
2023/09/02 02:01:15;;;;;;;20.10;16.40;;;13.70;99.90;;;;;;4993007;28;20424;-69
2023/09/02 02:03:56;;;;;;;18.07;16.27;;;13.80;99.90;;;;;;4994046;28;20895;-69
2023/09/02 02:06:24;;;;;;;17.37;15.57;;;13.70;99.90;;;;;;4994231;28;20165;-68
2023/09/02 02:08:59;;;;;;;16.07;14.50;;;13.60;99.90;;;;;;4993651;28;20454;-69
2023/09/02 02:11:28;;;;;;;18.13;15.83;;;13.50;99.90;;;;;;4993690;28;20902;-68
2023/09/02 02:14:02;;;;;;;19.83;15.07;;;13.50;99.90;;;;;;4989356;28;20440;-68
2023/09/02 02:16:29;;;;;;;19.43;15.50;;;13.40;99.90;;;;;;4974374;28;20421;-69
2023/09/02 02:18:56;;;;;;;16.70;15.00;;;13.40;99.90;;;;;;4974175;28;20434;-68
2023/09/02 02:21:22;;;;;;;17.70;15.00;;;13.60;99.90;;;;;;4973975;28;20496;-68
2023/09/02 02:23:47;;;;;;;18.40;16.50;;;13.50;99.90;;;;;;4974272;28;20838;-68
2023/09/02 02:26:15;;;;;;;19.80;17.03;;;13.40;99.90;;;;;;4974055;28;20495;-68
2023/09/02 02:28:41;;;;;;;19.63;17.27;;;13.40;99.90;;;;;;4973998;28;20237;-68
2023/09/02 02:31:07;;;;;;;17.70;14.70;;;13.30;99.90;;;;;;4972789;28;20457;-68
2023/09/02 02:33:32;;;;;;;19.23;14.97;;;13.30;99.90;;;;;;4974091;28;20401;-68
2023/09/02 02:35:58;;;;;;;17.40;14.67;;;13.30;99.90;;;;;;4977942;28;20629;-68
2023/09/02 02:38:24;;;;;;;22.20;14.90;;;13.30;99.90;;;;;;4992187;28;20174;-68
2023/09/02 02:40:49;;;;;;;16.97;15.17;;;13.30;99.90;;;;;;4993095;28;20199;-68
2023/09/02 02:43:15;;;;;;;20.63;15.40;;;13.20;99.90;;;;;;4993154;28;20169;-68
2023/09/02 02:45:43;;;;;;;19.53;14.23;;;13.20;99.90;;;;;;4993237;28;20675;-68
2023/09/02 02:48:15;;;;;;;17.10;15.17;;;13.20;99.90;;;;;;4979088;28;20555;-68
2023/09/02 02:50:41;;;;;;;16.70;14.93;;;13.20;99.90;;;;;;4973401;28;20473;-68
2023/09/02 02:53:07;;;;;;;17.77;15.87;;;13.10;99.90;;;;;;4973618;28;20464;-68
2023/09/02 02:55:33;;;;;;;18.83;15.70;;;13.20;99.90;;;;;;4973502;28;20401;-68
2023/09/02 02:57:59;;;;;;;19.43;14.93;;;13.10;99.90;;;;;;4973463;28;20471;-69
2023/09/02 03:00:24;;;;;;;16.90;14.10;;;13.10;99.90;;;;;;4973706;28;20205;-69
2023/09/02 03:02:53;;;;;;;17.83;15.17;;;13.10;99.90;;;;;;4966571;28;20205;-69
2023/09/02 03:05:20;;;;;;;20.30;14.53;;;13.10;99.90;;;;;;4971207;28;20196;-69
2023/09/02 03:07:47;;;;;;;17.77;14.07;;;13.00;99.90;;;;;;4973801;28;20488;-69
2023/09/02 03:10:12;;;;;;;17.07;15.17;;;13.00;99.90;;;;;;4973060;28;20472;-69
2023/09/02 03:12:38;;;;;;;14.67;13.20;;;13.10;99.90;;;;;;4973902;28;20491;-69
2023/09/02 03:15:04;;;;;;;18.33;16.40;;;13.10;99.90;;;;;;4971820;28;20170;-69
2023/09/02 03:17:30;;;;;;;16.77;15.03;;;13.00;99.90;;;;;;4964473;28;20648;-69
2023/09/02 03:19:55;;;;;;;16.77;14.73;;;13.00;99.90;;;;;;4971705;28;20559;-69
2023/09/02 03:22:21;;;;;;;17.03;14.70;;;13.00;99.90;;;;;;4973499;28;20644;-68
2023/09/02 03:24:52;;;;;;;15.10;13.60;;;13.00;99.90;;;;;;4973493;28;20252;-69
2023/09/02 03:27:17;;;;;;;17.63;14.27;;;12.90;99.90;;;;;;4973690;28;20178;-69
2023/09/02 03:29:47;;;;;;;16.13;14.50;;;12.90;99.90;;;;;;4956003;28;20465;-69
2023/09/02 03:32:12;;;;;;;14.77;13.30;;;12.90;99.90;;;;;;4954166;28;20188;-68
2023/09/02 03:34:38;;;;;;;17.73;15.80;;;12.90;99.90;;;;;;4954281;28;20481;-69
2023/09/02 03:37:03;;;;;;;18.87;15.10;;;12.90;99.90;;;;;;4954313;28;20182;-68
2023/09/02 03:39:31;;;;;;;17.97;14.83;;;12.90;99.90;;;;;;4953884;28;20240;-68
2023/09/02 03:41:56;;;;;;;21.30;15.03;;;12.90;99.90;;;;;;4953620;28;20653;-68
2023/09/02 03:44:22;;;;;;;18.37;14.43;;;12.80;99.90;;;;;;4954719;28;20505;-68
2023/09/02 03:46:47;;;;;;;17.23;14.50;;;12.80;99.90;;;;;;4953626;28;20170;-69
2023/09/02 03:49:13;;;;;;;16.83;14.97;;;12.80;99.90;;;;;;4953271;28;20240;-69
2023/09/02 03:51:38;;;;;;;23.50;15.83;;;12.80;99.90;;;;;;4960112;28;20173;-68
2023/09/02 03:54:04;;;;;;;20.73;16.17;;;12.80;99.90;;;;;;4972439;28;20174;-69
2023/09/02 03:56:30;;;;;;;16.53;13.83;;;12.70;99.90;;;;;;4972848;28;20532;-69
2023/09/02 03:58:55;;;;;;;22.13;15.03;;;12.80;99.90;;;;;;4989228;23;20417;-70
2023/09/02 04:01:21;;;;;;;16.10;14.10;;;12.70;99.90;;;;;;4953964;29;20253;-70
2023/09/02 04:03:47;;;;;;;16.97;14.13;;;12.70;99.90;;;;;;4953970;28;20171;-70
2023/09/02 04:06:12;;;;;;;16.77;15.00;;;12.70;99.90;;;;;;4954253;29;20600;-70
2023/09/02 04:08:38;;;;;;;15.07;12.80;;;12.70;99.90;;;;;;4951912;28;20193;-69
2023/09/02 04:11:03;;;;;;;14.83;13.33;;;12.70;99.90;;;;;;4954319;28;20261;-68
2023/09/02 04:13:30;;;;;;;16.07;14.03;;;12.70;99.90;;;;;;4952343;28;20660;-70
2023/09/02 04:15:57;;;;;;;14.60;13.10;;;12.60;99.90;;;;;;4953943;28;20225;-70
2023/09/02 04:18:23;;;;;;;16.23;13.07;;;12.60;99.90;;;;;;4953745;28;20413;-69
2023/09/02 04:20:49;;;;;;;15.93;14.33;;;12.60;99.90;;;;;;4939640;28;21097;-73
2023/09/02 04:23:15;;;;;;;17.23;15.43;;;12.60;99.90;;;;;;4933907;29;20435;-69
2023/09/02 04:25:51;;;;;;;16.83;14.20;;;12.60;99.90;;;;;;4934711;29;20418;-69
2023/09/02 04:28:17;;;;;;;14.83;13.33;;;12.60;99.90;;;;;;4935116;29;20624;-69
2023/09/02 04:30:43;;;;;;;14.33;12.73;;;12.60;99.90;;;;;;4953704;28;20557;-69
2023/09/02 04:33:10;;;;;;;15.20;13.70;;;12.70;99.90;;;;;;4953182;28;20413;-69
2023/09/02 04:35:39;;;;;;;16.27;13.40;;;12.70;99.90;;;;;;4953674;28;20967;-72
2023/09/02 04:38:05;;;;;;;15.53;13.23;;;12.70;99.90;;;;;;4953572;28;20501;-69
2023/09/02 04:40:35;;;;;;;16.53;14.07;;;12.70;99.90;;;;;;4952029;28;20548;-70
2023/09/02 04:43:00;;;;;;;16.00;14.37;;;12.70;99.90;;;;;;4950589;28;20418;-70
2023/09/02 04:45:26;;;;;;;21.07;13.80;;;12.70;99.90;;;;;;4934972;29;20479;-70
2023/09/02 04:47:52;;;;;;;14.33;12.40;;;12.80;99.90;;;;;;4934567;29;20163;-71
2023/09/02 04:50:18;;;;;;;16.27;13.50;;;12.80;99.90;;;;;;4948121;29;20883;-73
2023/09/02 04:52:44;;;;;;;14.40;12.90;;;12.80;99.90;;;;;;4948416;28;20191;-70
2023/09/02 04:55:10;;;;;;;13.03;11.73;;;12.90;99.90;;;;;;4934387;29;20411;-70
2023/09/02 04:57:36;;;;;;;14.10;12.80;;;12.90;99.90;;;;;;4948619;29;20669;-70
2023/09/02 05:00:02;;;;;;;15.90;12.90;;;13.00;99.90;;;;;;4936789;28;20473;-69
2023/09/02 05:02:28;;;;;;;17.83;13.80;;;13.00;99.90;;;;;;4936220;29;20549;-71
2023/09/02 05:04:53;;;;;;;15.30;13.70;;;13.10;99.90;;;;;;4936910;29;20403;-70
2023/09/02 05:07:19;;;;;;;16.57;13.10;;;13.10;99.90;;;;;;4938179;29;20179;-70
2023/09/02 05:09:44;;;;;;;15.20;13.20;;;13.20;99.90;;;;;;4937801;29;20206;-73
2023/09/02 05:12:10;;;;;;;16.10;13.53;;;13.20;99.90;;;;;;4950681;29;20541;-70
2023/09/02 05:14:37;;;;;;;16.13;12.47;;;13.30;99.90;;;;;;4945607;28;20261;-69
2023/09/02 05:17:03;;;;;;;16.20;11.97;;;13.40;99.90;;;;;;4958843;28;20173;-70
2023/09/02 05:19:28;;;;;;;14.67;12.27;;;13.50;99.90;;;;;;4959432;28;20425;-73
2023/09/02 05:21:57;;;;;;;15.63;12.90;;;13.60;99.90;;;;;;4959213;28;20174;-69
2023/09/02 05:24:22;;;;;;;14.03;12.40;;;13.70;99.90;;;;;;4958782;28;20641;-69
2023/09/02 05:26:48;;;;;;;12.93;11.73;;;13.80;99.90;;;;;;4957200;28;20417;-69
2023/09/02 05:29:14;;;;;;;12.73;11.43;;;13.90;99.90;;;;;;4954991;28;20468;-69
2023/09/02 05:31:39;;;;;;;12.43;11.10;;;13.90;99.90;;;;;;4955478;28;20186;-69
2023/09/02 05:34:05;;;;;;;12.90;11.57;;;14.00;99.90;;;;;;4944359;28;20257;-72
2023/09/02 05:36:31;;;;;;;13.23;10.60;;;14.10;99.90;;;;;;4956762;28;20270;-69
2023/09/02 05:38:56;;;;;;;15.30;10.87;;;14.20;99.90;;;;;;4955736;28;20185;-69
2023/09/02 05:41:24;;;;;;;11.53;10.43;;;14.30;99.90;;;;;;4940920;28;20254;-69
2023/09/02 05:43:50;;;;;;;11.50;10.40;;;14.40;99.90;;;;;;4948530;29;20186;-70
2023/09/02 05:46:15;;;;;;;11.47;10.43;;;14.70;99.90;;;;;;4956602;28;20510;-73
2023/09/02 05:48:41;;;;;;;9.43;8.50;;;15.20;99.90;;;;;;4954792;28;20748;-69
2023/09/02 05:51:06;;;;;;;9.20;8.30;;;15.70;99.90;;;;;;4956677;28;20646;-69
2023/09/02 05:53:32;;;;;;;7.83;7.03;;;15.90;99.90;;;;;;4948764;28;20176;-69
2023/09/02 05:55:58;;;;;;;8.27;7.47;;;16.00;99.90;;;;;;4952685;29;20665;-72
2023/09/02 05:58:25;;;;;;;11.13;7.30;;;16.40;99.90;;;;;;4944173;29;20202;-69
2023/09/02 06:00:51;;;;;;;6.90;6.30;;;17.10;99.90;;;;;;4952103;29;20212;-70
2023/09/02 06:03:16;;;;;;;7.67;6.93;;;17.20;99.90;;;;;;4948352;29;20426;-70
2023/09/02 06:05:42;;;;;;;8.53;7.30;;;17.50;99.90;;;;;;4937123;29;20180;-73
2023/09/02 06:08:08;;;;;;;8.70;5.97;;;18.30;99.90;;;;;;4937440;29;20173;-70
2023/09/02 06:10:33;;;;;;;10.37;6.07;;;18.90;99.90;;;;;;4949045;29;20219;-69
2023/09/02 06:12:59;;;;;;;7.30;6.43;;;19.60;99.90;;;;;;4947828;29;20258;-70
2023/09/02 06:15:25;;;;;;;7.07;5.40;;;19.90;99.90;;;;;;4937406;29;20554;-71
2023/09/02 06:17:50;;;;;;;6.90;5.27;;;20.50;99.90;;;;;;4951734;29;20178;-73
2023/09/02 06:20:20;;;;;;;9.03;5.47;;;21.20;99.90;;;;;;4956431;29;20189;-70
2023/09/02 06:22:45;;;;;;;6.33;5.70;;;20.00;99.90;;;;;;4954720;29;20206;-70
2023/09/02 06:25:11;;;;;;;7.27;5.03;;;19.70;99.90;;;;;;4972276;28;20452;-71
2023/09/02 06:27:37;;;;;;;6.53;4.97;;;20.40;99.90;;;;;;4942752;28;20186;-72
2023/09/02 06:30:03;;;;;;;7.00;5.07;;;20.30;99.90;;;;;;4950155;28;20472;-70
2023/09/02 06:32:29;;;;;;;5.93;4.97;;;21.00;99.90;;;;;;4954082;28;20267;-71
2023/09/02 06:34:55;;;;;;;6.43;5.27;;;20.40;99.90;;;;;;4954651;29;20849;-75
2023/09/02 06:37:20;;;;;;;8.53;5.30;;;20.50;99.90;;;;;;4954773;28;20181;-71
2023/09/02 06:39:46;;;;;;;7.43;4.73;;;20.80;99.90;;;;;;4936217;29;20193;-69
2023/09/02 06:42:11;;;;;;;5.73;4.73;;;20.60;99.90;;;;;;4943127;29;20184;-69
2023/09/02 06:44:37;;;;;;;7.53;4.47;;;21.40;99.90;;;;;;4955533;29;20726;-69
2023/09/02 06:47:03;;;;;;;40.53;36.57;;;21.10;99.90;;;;;;4945008;29;20189;-73
2023/09/02 06:49:32;;;;;;;12.70;10.60;;;21.40;99.90;;;;;;4935172;29;20272;-68
2023/09/02 06:51:58;;;;;;;5.10;4.40;;;21.00;99.90;;;;;;4941138;29;20423;-68
2023/09/02 06:54:23;;;;;;;10.67;5.47;;;20.90;99.90;;;;;;4955374;29;20491;-70
2023/09/02 06:56:50;;;;;;;5.27;4.13;;;20.50;99.90;;;;;;4953605;29;20240;-68
2023/09/02 06:59:16;;;;;;;6.47;5.30;;;21.10;99.90;;;;;;4945178;29;20219;-70
2023/09/02 07:01:41;;;;;;;5.00;4.47;;;21.50;99.90;;;;;;4939946;29;20418;-69
2023/09/02 07:04:07;;;;;;;9.43;5.50;;;22.40;99.90;;;;;;4942675;28;20488;-70
2023/09/02 07:06:33;;;;;;;10.00;7.90;;;22.30;99.90;;;;;;4934714;28;20549;-70
2023/09/02 07:08:59;;;;;;;16.07;13.23;;;23.20;99.90;;;;;;4935427;29;20210;-71
2023/09/02 07:11:24;;;;;;;5.63;4.53;;;23.40;99.90;;;;;;4940854;29;20181;-73
2023/09/02 07:13:50;;;;;;;4.60;4.20;;;22.80;99.90;;;;;;4935253;29;20415;-71
2023/09/02 07:16:16;;;;;;;4.70;4.10;;;22.50;99.90;;;;;;4941188;29;20194;-70
2023/09/02 07:18:41;;;;;;;19.10;16.10;;;22.20;99.90;;;;;;4968954;28;20170;-69
2023/09/02 07:21:07;;;;;;;6.67;4.40;;;22.90;99.90;;;;;;4954473;28;20222;-69
2023/09/02 07:23:34;;;;;;;6.40;4.60;;;22.90;99.90;;;;;;4955065;28;20505;-69
2023/09/02 07:26:01;;;;;;;5.77;4.97;;;23.20;99.90;;;;;;4952548;28;20552;-69
2023/09/02 07:28:28;;;;;;;5.33;4.03;;;23.50;99.90;;;;;;4960203;28;20401;-70
2023/09/02 07:30:55;;;;;;;7.67;5.60;;;22.70;99.90;;;;;;4973386;28;20452;-70
2023/09/02 07:33:21;;;;;;;15.50;13.20;;;21.90;99.90;;;;;;4973969;28;20444;-73
2023/09/02 07:35:47;;;;;;;7.50;6.70;;;22.30;99.90;;;;;;4974347;28;20412;-76
2023/09/02 07:38:12;;;;;;;4.67;4.00;;;23.60;99.90;;;;;;4962481;28;20173;-72
2023/09/02 07:40:38;;;;;;;6.00;5.33;;;24.60;99.90;;;;;;4952794;29;20206;-69
2023/09/02 07:43:03;;;;;;;4.10;3.70;;;25.20;99.90;;;;;;4954126;29;20582;-70
2023/09/02 07:45:29;;;;;;;7.20;6.00;;;24.60;99.90;;;;;;4953826;29;20210;-70
2023/09/02 07:47:55;;;;;;;4.33;3.30;;;24.60;99.90;;;;;;4953944;29;20174;-71
2023/09/02 07:50:20;;;;;;;5.30;4.80;;;25.10;99.90;;;;;;4954025;29;20289;-70
2023/09/02 07:52:47;;;;;;;4.80;3.70;;;24.10;99.90;;;;;;4954415;29;20171;-69
2023/09/02 07:55:13;;;;;;;5.57;3.70;;;25.20;99.90;;;;;;4952428;28;20642;-70
2023/09/02 07:57:38;;;;;;;3.50;2.87;;;25.10;99.90;;;;;;4954047;29;20448;-73
2023/09/02 08:00:04;;;;;;;4.13;2.73;;;23.80;99.90;;;;;;4949784;28;20198;-71
2023/09/02 08:02:30;;;;;;;3.63;3.33;;;24.70;99.90;;;;;;4934689;29;20187;-74
2023/09/02 08:04:56;;;;;;;3.17;2.87;;;25.10;99.90;;;;;;4944125;28;20940;-71
2023/09/02 08:07:21;;;;;;;5.03;3.30;;;23.90;99.90;;;;;;4946639;28;20178;-73
2023/09/02 08:09:50;;;;;;;7.10;6.40;;;24.00;99.90;;;;;;4953395;29;20700;-70
2023/09/02 08:12:16;;;;;;;4.57;3.63;;;25.20;99.90;;;;;;4953750;28;20632;-71
2023/09/02 08:14:42;;;;;;;5.03;4.63;;;26.20;99.90;;;;;;4953710;28;20414;-75
2023/09/02 08:17:08;;;;;;;3.57;2.93;;;26.40;99.90;;;;;;4954290;28;20220;-71
2023/09/02 08:19:33;;;;;;;10.83;6.20;;;25.00;99.90;;;;;;4952672;28;20194;-71
2023/09/02 08:21:59;;;;;;;10.33;3.70;;;25.40;99.90;;;;;;4945933;29;20446;-74
2023/09/02 08:24:25;;;;;;;3.60;2.60;;;26.00;99.90;;;;;;4940919;28;20178;-77
2023/09/02 08:26:50;;;;;;;18.77;16.73;;;26.10;99.90;;;;;;4945276;28;20179;-75
2023/09/02 08:29:16;;;;;;;7.80;6.73;;;25.30;99.90;;;;;;4971658;28;20201;-73
2023/09/02 08:31:42;;;;;;;3.90;3.60;;;27.00;99.90;;;;;;4972134;28;20181;-74
2023/09/02 08:34:08;;;;;;;3.73;3.00;;;25.60;99.90;;;;;;4970865;28;20556;-73
2023/09/02 08:36:33;;;;;;;2.93;2.63;;;25.40;99.90;;;;;;4954616;28;21440;-74
2023/09/02 08:38:59;;;;;;;4.20;3.10;;;27.10;99.90;;;;;;4948417;28;20197;-74
2023/09/02 08:41:29;;;;;;;4.67;3.27;;;27.20;99.90;;;;;;4970508;28;20188;-72
2023/09/02 08:43:55;;;;;;;6.20;2.90;;;27.20;99.90;;;;;;4949662;28;20181;-72
2023/09/02 08:46:26;;;;;;;4.03;2.80;;;26.00;99.90;;;;;;4935295;28;20414;-73
2023/09/02 08:48:56;;;;;;;3.27;2.97;;;26.00;99.90;;;;;;4946508;28;20425;-74
2023/09/02 08:51:22;;;;;;;2.90;2.40;;;27.00;99.90;;;;;;4940535;28;20812;-73
2023/09/02 08:53:50;;;;;;;3.40;3.00;;;26.50;99.90;;;;;;4941810;28;20450;-74
2023/09/02 08:56:16;;;;;;;3.53;2.53;;;27.40;99.90;;;;;;4933850;29;20547;-75
2023/09/02 08:58:42;;;;;;;3.00;2.70;;;25.90;99.90;;;;;;4932933;28;20509;-75
2023/09/02 09:01:09;;;;;;;4.00;2.40;;;24.70;99.90;;;;;;4951953;29;20536;-74
2023/09/02 09:03:39;;;;;;;4.10;2.90;;;25.20;99.90;;;;;;4952008;29;20557;-75
2023/09/02 09:06:09;;;;;;;3.60;3.20;;;24.30;99.90;;;;;;4943880;28;20415;-75
2023/09/02 09:08:35;;;;;;;5.63;3.00;;;25.40;99.90;;;;;;4942464;28;20434;-75
2023/09/02 09:11:04;;;;;;;2.90;2.30;;;25.80;99.90;;;;;;4934308;29;20868;-75
2023/09/02 09:13:30;;;;;;;3.03;2.50;;;27.20;99.90;;;;;;4938653;28;20417;-75
2023/09/02 09:15:57;;;;;;;3.63;2.33;;;27.50;99.90;;;;;;4933559;29;20940;-75
2023/09/02 09:18:24;;;;;;;5.53;2.67;;;27.40;99.90;;;;;;4947134;28;20928;-74
2023/09/02 09:20:50;;;;;;;3.63;2.87;;;25.00;99.90;;;;;;4951619;29;20446;-74
2023/09/02 09:23:15;;;;;;;2.30;2.10;;;25.10;99.90;;;;;;4947193;28;20655;-76
2023/09/02 09:25:42;;;;;;;5.97;2.23;;;25.00;99.90;;;;;;4940549;28;20461;-76
2023/09/02 09:28:12;;;;;;;2.43;2.23;;;24.20;99.90;;;;;;4939294;28;20577;-73
2023/09/02 09:30:38;;;;;;;3.00;2.20;;;25.70;99.90;;;;;;4937700;28;20458;-74
2023/09/02 09:33:05;;;;;;;5.33;3.40;;;26.10;99.90;;;;;;4933736;29;20409;-75
2023/09/02 09:35:34;;;;;;;3.13;2.13;;;25.00;99.90;;;;;;4936159;28;20415;-74
2023/09/02 09:38:01;;;;;;;4.50;3.90;;;25.40;99.90;;;;;;4933345;29;20493;-73
2023/09/02 09:40:38;;;;;;;6.83;5.67;;;25.50;99.90;;;;;;4933419;29;20809;-74
2023/09/02 09:43:23;;;;;;;21.03;18.70;;;24.90;99.90;;;;;;4934880;28;20893;-75
2023/09/02 09:45:52;;;;;;;7.00;6.30;;;25.80;99.90;;;;;;4941973;28;20426;-74
2023/09/02 09:48:17;;;;;;;8.10;5.27;;;25.20;99.90;;;;;;4934229;29;20513;-72
2023/09/02 09:50:43;;;;;;;5.03;2.77;;;25.90;99.90;;;;;;4939159;28;20886;-73
2023/09/02 09:53:09;;;;;;;40.03;35.23;;;25.40;99.90;;;;;;4935366;29;20175;-73
2023/09/02 09:55:36;;;;;;;14.20;12.77;;;24.80;99.90;;;;;;4936754;29;20254;-72
2023/09/02 09:58:03;;;;;;;3.17;2.87;;;25.70;99.90;;;;;;4937718;28;20890;-74
2023/09/02 10:00:29;;;;;;;5.20;2.87;;;24.30;99.90;;;;;;4938945;28;20450;-74
2023/09/02 10:02:57;;;;;;;2.90;2.60;;;23.70;99.90;;;;;;4949269;28;20466;-75
2023/09/02 10:05:30;;;;;;;2.77;2.57;;;24.10;99.90;;;;;;4944371;28;20861;-74
2023/09/02 10:08:00;;;;;;;3.67;2.63;;;24.20;99.90;;;;;;4936591;28;20448;-73
2023/09/02 10:10:37;;;;;;;10.83;8.97;;;23.20;99.90;;;;;;4936383;29;20536;-74
2023/09/02 10:13:04;;;;;;;5.17;3.20;;;23.60;99.90;;;;;;4936560;29;20915;-75
2023/09/02 10:15:31;;;;;;;3.30;2.87;;;24.40;99.90;;;;;;4936148;29;20410;-73
2023/09/02 10:17:59;;;;;;;3.67;2.90;;;23.20;99.90;;;;;;4942355;28;20435;-73
2023/09/02 10:20:28;;;;;;;6.10;4.03;;;23.10;99.90;;;;;;4939943;28;20941;-72
2023/09/02 10:22:57;;;;;;;4.13;2.47;;;24.00;99.90;;;;;;4941638;28;20417;-74
2023/09/02 10:25:29;;;;;;;2.20;2.00;;;23.60;99.90;;;;;;4936239;29;20984;-76
2023/09/02 10:28:05;;;;;;;4.93;3.17;;;23.20;99.90;;;;;;4943836;29;20471;-73
2023/09/02 10:30:47;;;;;;;2.23;1.93;;;23.50;99.90;;;;;;4948214;29;20462;-72
2023/09/02 10:33:41;;;;;;;3.97;2.10;;;24.00;99.90;;;;;;4936034;29;20437;-74
2023/09/02 10:36:08;;;;;;;6.30;2.60;;;24.00;99.90;;;;;;4946728;28;20968;-71
2023/09/02 10:38:37;;;;;;;2.47;1.90;;;23.70;99.90;;;;;;4943244;28;20416;-74
2023/09/02 10:41:12;;;;;;;7.23;4.00;;;23.40;99.90;;;;;;4943276;29;20428;-72
2023/09/02 10:43:40;;;;;;;9.43;5.80;;;23.50;99.90;;;;;;4944385;28;20435;-72
2023/09/02 10:46:07;;;;;;;9.70;5.00;;;23.10;99.90;;;;;;4950100;28;20406;-75
2023/09/02 10:48:35;;;;;;;4.53;2.70;;;23.10;99.90;;;;;;4955106;29;20508;-72
2023/09/02 10:51:02;;;;;;;5.77;2.60;;;23.10;99.90;;;;;;4953729;28;20535;-75
2023/09/02 10:53:55;;;;;;;2.07;1.97;;;23.30;99.90;;;;;;4939961;28;20713;-73
2023/09/02 10:56:25;;;;;;;8.30;2.60;;;22.70;99.90;;;;;;4941575;28;20492;-70
2023/09/02 10:58:51;;;;;;;29.63;13.87;;;22.60;99.90;;;;;;4935309;29;20861;-71
2023/09/02 11:01:17;;;;;;;10.50;6.03;;;22.90;99.90;;;;;;4950696;29;20499;-72
2023/09/02 11:03:46;;;;;;;26.03;13.00;;;22.70;99.90;;;;;;4944415;29;20587;-72
2023/09/02 11:06:14;;;;;;;4.17;2.87;;;22.70;99.90;;;;;;4945794;28;20174;-72
2023/09/02 11:08:51;;;;;;;3.90;2.73;;;22.20;99.90;;;;;;4944051;28;20412;-73
2023/09/02 11:11:18;;;;;;;5.33;2.40;;;22.20;99.90;;;;;;4941760;29;20421;-71
2023/09/02 11:14:08;;;;;;;3.53;2.70;;;22.00;99.90;;;;;;4947753;29;20410;-71
2023/09/02 11:16:35;;;;;;;6.77;6.10;;;21.90;99.90;;;;;;4940993;29;20480;-69
2023/09/02 11:19:00;;;;;;;4.87;3.60;;;21.90;99.90;;;;;;4944412;29;20822;-71
2023/09/02 11:21:43;;;;;;;20.60;15.70;;;22.00;99.90;;;;;;4941403;29;20482;-72
2023/09/02 11:24:21;;;;;;;12.93;7.87;;;22.10;99.90;;;;;;4940078;28;20432;-71
2023/09/02 11:26:54;;;;;;;9.47;5.07;;;22.30;99.90;;;;;;4946488;28;20488;-72
2023/09/02 11:29:24;;;;;;;4.63;3.43;;;22.50;99.90;;;;;;4946034;29;20460;-72
2023/09/02 11:31:57;;;;;;;5.90;3.37;;;22.50;99.90;;;;;;4947504;28;20410;-72
2023/09/02 11:34:29;;;;;;;2.57;2.13;;;22.20;99.90;;;;;;4947298;29;20447;-71
2023/09/02 11:36:58;;;;;;;3.17;2.33;;;22.10;99.90;;;;;;4946850;28;20413;-72
2023/09/02 11:39:25;;;;;;;3.10;2.83;;;22.60;99.90;;;;;;4942859;29;20449;-72
2023/09/02 11:42:12;;;;;;;2.43;1.80;;;22.60;99.90;;;;;;4948765;29;20951;-72
2023/09/02 11:44:38;;;;;;;3.33;2.87;;;22.00;99.90;;;;;;4947603;29;20779;-73
2023/09/02 11:47:05;;;;;;;5.57;4.70;;;22.30;99.90;;;;;;4949962;29;20414;-70
2023/09/02 11:49:31;;;;;;;3.90;2.80;;;22.50;99.90;;;;;;4954345;28;20903;-72
2023/09/02 11:51:57;;;;;;;3.10;2.40;;;22.20;99.90;;;;;;4952270;29;20426;-71
2023/09/02 11:54:22;;;;;;;3.40;2.40;;;22.20;99.90;;;;;;4938834;29;20406;-71
2023/09/02 11:57:00;;;;;;;2.40;2.20;;;21.80;99.90;;;;;;4944735;28;20182;-72
2023/09/02 11:59:26;;;;;;;5.60;2.23;;;21.60;99.90;;;;;;4940807;29;20284;-71
2023/09/02 12:02:07;;;;;;;2.83;2.20;;;21.80;99.90;;;;;;4945097;28;20442;-75
2023/09/02 12:04:40;;;;;;;3.90;3.30;;;22.00;99.90;;;;;;4948199;29;20434;-75
2023/09/02 12:07:06;;;;;;;2.00;1.83;;;22.40;99.90;;;;;;4962513;29;20413;-75
2023/09/02 12:09:34;;;;;;;4.40;1.97;;;22.40;99.90;;;;;;4965465;29;20485;-74
2023/09/02 12:12:00;;;;;;;4.77;3.87;;;22.50;99.90;;;;;;4947955;28;20414;-73
2023/09/02 12:14:30;;;;;;;2.40;2.10;;;22.50;99.90;;;;;;4944938;29;20419;-73
2023/09/02 12:16:56;;;;;;;2.40;2.20;;;22.70;99.90;;;;;;4946239;28;20426;-74
2023/09/02 12:19:22;;;;;;;4.20;3.00;;;22.80;99.90;;;;;;4941471;29;20437;-74
2023/09/02 12:21:48;;;;;;;3.50;2.50;;;22.70;99.90;;;;;;4939908;28;20978;-73
2023/09/02 12:24:14;;;;;;;4.00;1.87;;;22.70;99.90;;;;;;4946347;29;20433;-76
2023/09/02 12:26:51;;;;;;;3.20;2.03;;;22.70;99.90;;;;;;4939601;29;20241;-73
2023/09/02 12:29:21;;;;;;;2.23;1.80;;;22.60;99.90;;;;;;4940653;29;20255;-73
2023/09/02 12:31:58;;;;;;;7.50;5.43;;;22.00;99.90;;;;;;4945441;29;20430;-72
2023/09/02 12:34:25;;;;;;;6.17;4.30;;;22.50;99.90;;;;;;4941827;29;20771;-71
2023/09/02 12:36:51;;;;;;;2.03;1.83;;;22.50;99.90;;;;;;4940816;29;20428;-71
2023/09/02 12:39:24;;;;;;;4.23;3.60;;;22.20;99.90;;;;;;4939379;28;20458;-73